INDIA METEOROLOGICAL DEPARTMENT, R.M.C. NEW DELHI
Dated:18-12-2017
METARS


Agartala   
VEAT 180430Z 35003KT 1500 BR SCT008 SCT018 20/18 Q1019 NOSIG=
Ahmedabad  
VAAH 180430Z 08008KT 4000 FU NSC 23/07 Q1022 NOSIG=
Amritsar   
VIAR 180430Z 32010KT 5000 HZ FEW100 14/06 Q1023 NOSIG=
Aurangabad 
VAAU 180300Z 09003KT 3000 HZ SCT020 SCT025 18/12 Q1021 NOSIG=
Bangalore  
VOBL 180430Z 08012KT 060V120 6000 NSC 21/12 Q1023 NOSIG=
Baroda     
VABO 180430Z 03004KT 5000 FU NSC 21/12 Q1021 NOSIG=
Bhaunagar  
VABV 180400Z 09004KT 2500 HZ NSC 22/16 Q1021=
Bhopal     
VABP 180400Z 05005KT 5000 HZ NSC 15/05 Q1024 NOSIG=
Bhubaneswar
VEBS 180430Z 05007KT 3500 HZ NSC 22/10 Q1021 NOSIG=
Bhuntar    
VIBR 180430Z 00000KT 7000 NSC 07/00 Q1029=
Chennai    
VOMM 180430Z 06012G22KT 6000 SCT020 29/20 Q1018 NOSIG=
Coimbatore 
VOCB 180430Z 04004KT 5000 HZ SCT015 SCT080 24/16 Q1021 NOSIG=
Colombo    
VCBI 180440Z 04015KT CAVOK 29/20 Q1014 NOSIG=
Delhi      
VIDP 180400Z 26008KT 1500 R28/1300 R29/P2000 FU NSC 13/05 Q1022 NOSIG=
Dehradun   
VIDN 180430Z 26003KT 6000 NSC 15/07 Q1021 =
Gauhati    
VEGT 180430Z 02003KT 0600 R02/0700 FG VV/// 20/17 Q1020 NOSIG=
Gaya       
VEGY 180430Z 26003KT 2500 HZ SCT250 19/05 Q1022 NOSIG=
Gaggal     
VIGG 180400Z 08002KT 8000 NSC 16/08 Q1024=
Goa        
VOGO 180400Z 10008KT 5000 HZ FEW018 BKN090 26/21 Q1016 NOSIG=
Fursatganj 
VERB 180400Z 23003KT 0800 BR NSC 11/07 Q1021=
Hyderabad  
VOHS 180430Z 09008KT 5000 HZ FEW020 24/17 Q1023 NOSIG =
Imphal     
VEIM 180400Z 14002KT 3000 HZ FEW010 17/12 Q1022 NOSIG=
Indore     
VAID 180300Z 07004KT 3000 HZ FEW020 SCT100 14/08 Q1023=
Jabalpur   
VAJB 180400Z 00000KT 3000 HZ BKN200 16/09 Q1021=
Jaipur     
VIJP 180430Z 00000KT 2500 HZ NSC 21/M03 Q1024 BECMG 3000 HZ=
Khajuraho  
VEKO 180300Z 00000KT 3000 HZ SCT100 09/06 Q1022=
Kochi      
VOCI 180430Z 06002KT 4000 HZ NSC 28/21 Q1016 NOSIG=
Kolkata    
VECC 180430Z 36006KT 1500 R01R/1800 BR NSC 17/13 Q1019 BECMG 1500 BR=
Kozhikode  
VOCL 180430Z 07008KT 6000 HZ FEW015 26/17 Q1017 NOSIG=
Lucknow    
VILK 180430Z 20004KT 2000 HZ NSC 14/09 Q1021 NOSIG=
Madurai    
VOMD 180430Z 04006KT 4500 HZ FEW020 27/21 Q1018 BECMG 6000=
Mohanbari  
VEMN 180430Z 07005KT 5000 HZ NSC 21/15 Q1021 NOSIG=
Mumbai     
VABB 180430Z 09007KT 3500 FU BKN100 27/13 Q1019 NOSIG=
Nagpur     
VANP 180430Z 01003KT 3000 HZ SCT100 23/07 Q1023 NOSIG=
Pantnagar
VIPT 180400Z 00000KT 0100 FG VV/// 12/12 Q1021=
Patna      
VEPT 180430Z 25002KT 0900 R25/1000 FG NSC 14/12 Q1021 NOSIG=
Raipur     
VERP 180400Z 03006KT 5000 HZ NSC 22/06 Q1022 NO SIG=
Safdarjung 
VIDD 180430Z 27006KT 2500 HZ NSC 16/06 Q1021 NOSIG=
Shimla     
VISM 180300Z 05002KT 6000 FEW040 16/M03 Q1026=
Surat     
VASU 180430Z 09012KT 4000 HZ NSC 25/15 Q1019=
Ranchi     
VERC 180430Z 34006KT 2500 HZ NSC 18/02 Q1022 NOSIG=
Trichy     
VOTR 180430Z 01011KT 2500 HZ FEW018 27/20 Q1017 NOSIG=
Trivandrum 
VOTV 180430Z 24003KT 4000 HZ FEW015 30/22 Q1015 NOSIG=
Udaipur    
VAUD 180400Z 00000KT 6000 FEW035 15/03 Q1024 NOSIG=
Varanasi   
VEBN 180430Z 30004KT 2500 HZ FEW100 16/08 Q1021 BECMG 3000 HZ=
Vizag      
VOVZ 180400Z 31003KT 4000 HZ NSC 25/16 Q1020 NOSIG =
Male       
VRMM 180400Z 07009KT 9000 FEW017 BKN100 28/24 Q1015 TEMPO 5000 -SHRA=
Kathmandu  
VNKT 180430Z NIL=
Dhaka      
VGHS 180430Z 03004KT 2500 HZ SCT015 BKN100 22/17 Q1020 BECMG S/VIS 3500M=
Colombo    
VCBI 180440Z 04015KT CAVOK 29/20 Q1014 NOSIG=
Karachi    
OPKC 180355Z 02011KT 5000 FU FEW020 SCT030 BKN080 18/05 Q1022 NOSIG=
Lahore     
OPLA 180425Z 34009KT 4000 FU FEW100 SCT200 13/06 Q1023/A30.20=
Leh        
VILH 180430Z VRB01KT 6000 FEW090 SCT150 M02/M16 Q1041 NOSIG RMK AC=
Sri Nagar  
VISR 180430Z VRB02KT 3500 BR SCT200 03/00 Q1036 NOSIG=
Jammu      
VIJU 180430Z VRB01KT 5000 HZ SCT250 16/10 Q1022 NOSIG=
Jodhpur    
VIJO 180330Z 07004KT 6000 SKC 13/-01 Q1024 NOSIG=
Bhuj-Rudra 
VABJ 180330Z VRB01KT 6000 SKC 20/10 Q1022 NOSIG=
Gorakhpur  
VEGK 180330Z 26002KT 0100 VV\ 10/10 Q1021 BECMG 0400=
Agra       
VIAG 180430Z 26006KT 6000 SKC 18/04 Q1022 NOSIG=
Bagdogra   
VEBD 180430Z VRB01KT 1500 BR NSC 19/18 Q1021 BECMG 2000=
Gwalior    
VIGR 180430Z 27008KT 6000 FAIR FEW100 20/02 Q1023 NOSIG =
Pune       
VAPO 180430Z 11010KT 5000 HZ FEW100 BKN250 23/11 Q1024 NOSIG=
Chandigarh 
VICG 180430Z 3000 HZ FEW250 16/07 Q1022 BECMG 4000=